createdAt,value
2016-04-12T09:19:20.783Z,1004.05
2016-04-12T09:41:55.923Z,1004.35
2016-04-12T09:42:55.895Z,1004.4
2016-04-12T09:43:55.881Z,1004.4
2016-04-12T09:44:55.853Z,1004.42
2016-04-12T09:45:55.841Z,1004.51
2016-04-12T09:46:55.812Z,1004.56
2016-04-12T09:47:55.799Z,1004.52
2016-04-12T09:48:55.786Z,1004.56
2016-04-12T09:49:55.758Z,1004.58
2016-04-12T09:50:55.744Z,1004.52
2016-04-12T09:51:55.731Z,1004.55
2016-04-12T09:52:55.718Z,1004.53
2016-04-12T09:53:55.706Z,1004.55
2016-04-12T09:54:55.677Z,1004.47
2016-04-12T09:55:55.664Z,1004.53
2016-04-12T09:56:55.651Z,1004.53
2016-04-12T09:57:55.638Z,1004.57
2016-04-12T09:58:55.610Z,1004.6
2016-04-12T09:59:55.613Z,1004.57
2016-04-12T10:00:55.585Z,1004.57
2016-04-12T10:01:55.571Z,1004.52
2016-04-12T10:02:55.557Z,1004.55
2016-04-12T10:03:55.529Z,1004.55
2016-04-12T10:04:55.517Z,1004.54
2016-04-12T10:05:55.503Z,1004.47
2016-04-12T10:06:55.491Z,1004.52
2016-04-12T10:07:55.478Z,1004.51
2016-04-12T10:08:55.465Z,1004.43
2016-04-12T10:09:55.451Z,1004.49
2016-04-12T10:10:55.439Z,1004.48
2016-04-12T10:11:55.426Z,1004.45
2016-04-12T10:12:55.397Z,1004.38
2016-04-12T10:13:55.384Z,1004.47
2016-04-12T10:14:55.371Z,1004.37
2016-04-12T10:15:55.359Z,1004.42
2016-04-12T10:16:55.345Z,1004.37
2016-04-12T10:17:55.333Z,1004.38
2016-04-12T10:18:55.319Z,1004.4
2016-04-12T10:19:55.291Z,1004.41
2016-04-12T10:20:55.278Z,1004.43
2016-04-12T10:21:55.266Z,1004.46
2016-04-12T10:22:55.253Z,1004.47
2016-04-12T10:23:55.239Z,1004.37
2016-04-12T10:24:55.226Z,1004.45
2016-04-12T10:25:55.213Z,1004.26
2016-04-12T10:26:55.201Z,1004.32
2016-04-12T10:27:55.188Z,1004.38
2016-04-12T10:28:55.174Z,1004.45
2016-04-12T10:29:55.162Z,1004.32
2016-04-12T10:30:55.149Z,1004.43
2016-04-12T10:31:55.135Z,1004.32
2016-04-12T10:32:55.123Z,1004.35
2016-04-12T10:33:55.126Z,1004.31
2016-04-12T10:34:55.112Z,1004.39
2016-04-12T10:35:55.085Z,1004.27
2016-04-12T10:36:55.087Z,1004.29
2016-04-12T10:37:55.059Z,1004.29
2016-04-12T10:38:55.045Z,1004.36
2016-04-12T10:39:55.048Z,1004.33
2016-04-12T10:40:55.019Z,1004.38
2016-04-12T10:41:55.006Z,1004.34
2016-04-12T10:42:55.010Z,1004.25
2016-04-12T10:43:54.981Z,1004.34
2016-04-12T10:44:54.968Z,1004.38
2016-04-12T10:45:54.970Z,1004.32
2016-04-12T10:46:54.958Z,1004.3
2016-04-12T10:47:54.945Z,1004.25
2016-04-12T10:48:54.964Z,1004.32
2016-04-12T10:49:54.919Z,1004.37
2016-04-12T10:50:54.905Z,1004.28
2016-04-12T10:51:54.894Z,1004.37
2016-04-12T10:52:54.896Z,1004.37
2016-04-12T10:53:54.867Z,1004.47
2016-04-12T10:54:54.870Z,1004.34
2016-04-12T10:55:54.857Z,1004.38
2016-04-12T10:56:54.844Z,1004.41
2016-04-12T10:57:54.830Z,1004.4
2016-04-12T10:58:54.818Z,1004.38
2016-04-12T10:59:54.805Z,1004.46
2016-04-12T11:00:54.838Z,1004.44
2016-04-12T11:01:54.779Z,1004.54
2016-04-12T11:02:54.766Z,1004.5
2016-04-12T11:03:54.753Z,1004.53
2016-04-12T11:04:54.740Z,1004.54
2016-04-12T11:05:54.727Z,1004.54
2016-04-12T11:06:54.729Z,1004.51
2016-04-12T11:07:54.701Z,1004.48
2016-04-12T11:08:54.690Z,1004.47
2016-04-12T11:09:54.676Z,1004.48
2016-04-12T11:10:54.662Z,1004.48
2016-04-12T11:11:54.650Z,1004.55
2016-04-12T11:12:54.636Z,1004.57
2016-04-12T11:13:54.609Z,1004.57
2016-04-12T11:14:54.595Z,1004.61
2016-04-12T11:15:54.583Z,1004.7
2016-04-12T11:16:54.569Z,1004.7
2016-04-12T11:17:54.588Z,1004.67
2016-04-12T11:18:54.544Z,1004.67
2016-04-12T11:19:54.546Z,1004.71
2016-04-12T11:20:54.517Z,1004.71
2016-04-12T11:21:54.505Z,1004.69
2016-04-12T11:22:54.492Z,1004.66
2016-04-12T11:23:54.480Z,1004.65
2016-04-12T11:24:54.466Z,1004.66
2016-04-12T11:25:54.453Z,1004.63
2016-04-12T11:26:54.440Z,1004.98
2016-04-12T11:27:54.427Z,1004.82
2016-04-12T11:28:54.414Z,1004.78
2016-04-12T11:29:54.402Z,1004.66
2016-04-12T11:30:54.389Z,1005.11
2016-04-12T11:31:54.375Z,1005.07
2016-04-12T11:32:54.363Z,1005
2016-04-12T11:33:54.366Z,1005.08
2016-04-12T11:34:54.337Z,1005.02
2016-04-12T11:35:54.324Z,1004.95
2016-04-12T11:36:54.310Z,1005.01
2016-04-12T11:37:54.313Z,1005.01
2016-04-12T11:38:54.300Z,1004.97
2016-04-12T11:39:54.303Z,1004.94
2016-04-12T11:40:54.446Z,1004.89
2016-04-12T11:41:54.277Z,1004.89
2016-04-12T11:42:54.280Z,1004.84
2016-04-12T11:43:54.268Z,1004.93
2016-04-12T11:44:54.254Z,1004.83
2016-04-12T11:45:54.256Z,1004.82
2016-04-12T11:46:54.244Z,1004.79
2016-04-12T11:47:54.247Z,1004.79
2016-04-12T11:48:54.265Z,1004.78
2016-04-12T11:49:54.236Z,1004.78
2016-04-12T11:50:54.239Z,1004.81
2016-04-12T11:51:54.257Z,1004.78
2016-04-12T11:52:54.244Z,1004.81
2016-04-12T11:53:54.231Z,1004.75
2016-04-12T11:54:54.234Z,1004.76
2016-04-12T11:55:54.236Z,1004.73
2016-04-12T11:56:54.239Z,1004.71
2016-04-12T11:57:54.242Z,1004.7
2016-04-12T11:58:54.230Z,1004.7
2016-04-12T11:59:54.280Z,1004.66
2016-04-12T12:00:54.282Z,1004.76
2016-04-12T12:01:54.238Z,1004.76
2016-04-12T12:02:54.240Z,1004.74
2016-04-12T12:03:54.243Z,1004.84
2016-04-12T12:04:54.230Z,1004.81
2016-04-12T12:05:54.232Z,1004.73
2016-04-12T12:06:54.251Z,1004.78
2016-04-12T12:07:54.238Z,1004.78
2016-04-12T12:08:54.240Z,1004.88
2016-04-12T12:09:54.259Z,1004.8
2016-04-12T12:10:54.245Z,1004.8
2016-04-12T12:11:54.248Z,1004.79
2016-04-12T12:12:54.252Z,1004.77
2016-04-12T12:13:54.254Z,1004.79
2016-04-12T12:14:54.256Z,1004.78
2016-04-12T12:15:54.259Z,1004.69
2016-04-12T12:16:54.247Z,1004.74
2016-04-12T12:17:54.250Z,1004.71
2016-04-12T12:18:54.268Z,1004.83
2016-04-12T12:19:54.255Z,1004.79
2016-04-12T12:20:54.258Z,1004.76
2016-04-12T12:21:54.261Z,1004.71
2016-04-12T12:22:54.263Z,1004.67
2016-04-12T12:23:54.266Z,1004.71
2016-04-12T12:24:54.269Z,1004.66
2016-04-12T12:25:54.255Z,1004.71
2016-04-12T12:26:54.274Z,1004.62
2016-04-12T12:27:54.261Z,1004.72
2016-04-12T12:28:54.263Z,1004.75
2016-04-12T12:29:54.266Z,1004.67
2016-04-12T12:30:54.269Z,1004.73
2016-04-12T12:31:54.271Z,1004.6
2016-04-12T12:32:54.274Z,1004.65
2016-04-12T12:33:54.277Z,1004.64
2016-04-12T12:34:54.279Z,1004.6
2016-04-12T12:35:54.282Z,1004.76
2016-04-12T12:36:54.285Z,1004.63
2016-04-12T12:37:54.288Z,1004.65
2016-04-12T12:38:54.290Z,1004.73
2016-04-12T12:39:54.277Z,1004.66
2016-04-12T12:40:54.295Z,1004.68
2016-04-12T12:41:54.282Z,1004.69
2016-04-12T12:42:54.285Z,1004.68
2016-04-12T12:43:54.288Z,1004.71
2016-04-12T12:44:54.291Z,1004.33
2016-04-12T12:45:54.293Z,1004.47
2016-04-12T12:46:54.483Z,1004.67
2016-04-12T12:47:54.298Z,1004.67
2016-04-12T12:48:54.317Z,1004.7
2016-04-12T12:49:54.303Z,1004.79
2016-04-12T12:50:54.307Z,1004.66
2016-04-12T12:51:54.309Z,1004.78
2016-04-12T12:52:54.311Z,1004.65
2016-04-12T12:53:54.330Z,1004.7
2016-04-12T12:54:54.317Z,1004.63
2016-04-12T12:55:54.320Z,1004.63
2016-04-12T12:56:54.322Z,1004.77
2016-04-12T12:57:54.341Z,1004.69
2016-04-12T12:58:54.328Z,1004.74
2016-04-12T12:59:54.330Z,1004.76
2016-04-12T13:00:54.333Z,1004.7
2016-04-12T13:01:54.336Z,1004.66
2016-04-12T13:02:54.323Z,1004.68
2016-04-12T13:03:54.326Z,1004.74
2016-04-12T13:04:54.344Z,1004.71
2016-04-12T13:05:54.346Z,1004.91
2016-04-12T13:06:54.334Z,1004.83
2016-04-12T13:07:54.352Z,1004.82
2016-04-12T13:08:54.357Z,1004.81
2016-04-12T13:09:55.142Z,1005.03
2016-04-12T13:10:56.473Z,1004.88
2016-04-12T13:11:55.319Z,1004.99
2016-04-12T13:12:55.932Z,1005.03
2016-04-12T13:13:55.246Z,1004.81
2016-04-12T13:14:54.356Z,1004.95
2016-04-12T13:15:54.359Z,1004.91
2016-04-12T13:16:54.407Z,1004.56
2016-04-12T13:17:54.380Z,1005.05
2016-04-12T13:18:54.367Z,1004.81
2016-04-12T13:19:54.370Z,1004.95
2016-04-12T13:20:54.373Z,1004.93
2016-04-12T13:21:54.376Z,1004.99
2016-04-12T13:22:54.378Z,1004.91
2016-04-12T13:23:54.380Z,1004.84
2016-04-12T13:24:54.384Z,1004.98
2016-04-12T13:25:54.386Z,1005.02
2016-04-12T13:26:54.389Z,1004.95
2016-04-12T13:27:54.391Z,1004.84
2016-04-12T13:28:54.394Z,1004.32
2016-04-12T13:29:54.396Z,1004.96
2016-04-12T13:30:54.400Z,1004.96
2016-04-12T13:31:54.402Z,1005.03
2016-04-12T13:32:54.405Z,1005.07
2016-04-12T13:33:54.407Z,1004.93
2016-04-12T13:34:54.394Z,1005
2016-04-12T13:35:54.396Z,1004.96
2016-04-12T13:36:54.400Z,1005.07
2016-04-12T13:37:54.402Z,1004.99
2016-04-12T13:38:54.405Z,1005.16
2016-04-12T13:39:54.407Z,1005.22
2016-04-12T13:40:54.410Z,1005.1
2016-04-12T13:41:54.413Z,1005.14
2016-04-12T13:42:54.492Z,1005.2
2016-04-12T13:43:54.542Z,1005.1
2016-04-12T13:44:54.419Z,1005.12
2016-04-12T13:45:54.406Z,1005.08
2016-04-12T13:46:54.483Z,1005.12
2016-04-12T13:47:54.407Z,1005.17
2016-04-12T13:48:54.424Z,1005.06
2016-04-12T13:49:54.413Z,1004.9
2016-04-12T13:50:54.415Z,1005.13
2016-04-12T13:51:54.418Z,1005.12
2016-04-12T13:52:54.421Z,1005.16
2016-04-12T13:53:54.423Z,1005.15
2016-04-12T13:54:54.426Z,1005.21
2016-04-12T13:55:54.429Z,1004.28
2016-04-12T13:56:54.431Z,1005.09
2016-04-12T13:57:54.418Z,1005.27
2016-04-12T13:58:54.420Z,1005.07
2016-04-12T13:59:54.423Z,1005.07
2016-04-12T14:00:54.426Z,1005.1
2016-04-12T14:01:54.429Z,1005.21
2016-04-12T14:02:54.431Z,1004.31
2016-04-12T14:03:54.434Z,1005.15
2016-04-12T14:04:54.421Z,1005.28
2016-04-12T14:05:54.424Z,1005.09
2016-04-12T14:06:54.427Z,1005.12
2016-04-12T14:07:54.428Z,1005.16
2016-04-12T14:08:54.431Z,1005.01
2016-04-12T14:09:54.434Z,1005.47
2016-04-12T14:10:54.437Z,1005.09
2016-04-12T14:11:54.456Z,1005.26
2016-04-12T14:12:54.428Z,1005.2
2016-04-12T14:13:54.430Z,1005.2
2016-04-12T14:14:54.433Z,1005.28
2016-04-12T14:15:54.435Z,1005.29
2016-04-12T14:16:54.422Z,1004.68
2016-04-12T14:17:54.424Z,1005.05
2016-04-12T14:18:54.427Z,1005.28
2016-04-12T14:19:54.430Z,1004.94
2016-04-12T14:20:54.416Z,1005.26
2016-04-12T14:21:54.420Z,1005.12
2016-04-12T14:22:54.438Z,1005.11
2016-04-12T14:23:54.425Z,1005.13
2016-04-12T14:24:54.428Z,1005.15
2016-04-12T14:25:54.430Z,1005.26
2016-04-12T14:26:54.433Z,1005
2016-04-12T14:27:54.436Z,1005.3
2016-04-12T14:28:54.423Z,1004.36
2016-04-12T14:29:54.427Z,1004.52
2016-04-12T14:30:54.429Z,1004.43
2016-04-12T14:31:54.416Z,1004.4
2016-04-12T14:32:54.435Z,1005.24
2016-04-12T14:33:54.421Z,1004.69
2016-04-12T14:34:54.424Z,1005.01
2016-04-12T14:35:54.426Z,1005.26
2016-04-12T14:36:54.414Z,1005.19
2016-04-12T14:37:54.416Z,1005.13
2016-04-12T14:38:54.419Z,1005.06
2016-04-12T14:39:54.406Z,1004.49
2016-04-12T14:40:54.409Z,1004.42
2016-04-12T14:41:54.412Z,1004.98
2016-04-12T14:42:54.398Z,1005
2016-04-12T14:43:54.401Z,1005.28
2016-04-12T14:44:54.403Z,1005.35
2016-04-12T14:45:54.406Z,1004.93
2016-04-12T14:46:54.394Z,1004.34
2016-04-12T14:47:54.396Z,1005.15
2016-04-12T14:48:54.399Z,1004.62
2016-04-12T14:49:54.402Z,1005.19
2016-04-12T14:50:54.388Z,1004.34
2016-04-12T14:51:54.391Z,1004.94
2016-04-12T14:52:54.378Z,1004.54
2016-04-12T14:53:54.616Z,1004.59
2016-04-12T14:54:55.290Z,1004.9
2016-04-12T14:55:54.371Z,1004.26
2016-04-12T14:56:54.373Z,1005.07
2016-04-12T14:57:54.360Z,1004.36
2016-04-12T14:58:54.363Z,1004.96
2016-04-12T14:59:54.366Z,1005.01
2016-04-12T15:00:54.369Z,1004.98
2016-04-12T15:01:54.357Z,1004.32
2016-04-12T15:02:54.359Z,1004.98
2016-04-12T15:03:54.362Z,1004.19
2016-04-12T15:04:54.348Z,1004.88
2016-04-12T15:05:54.335Z,1004.94
2016-04-12T15:06:54.338Z,1004.93
2016-04-12T15:07:54.340Z,1004.95
2016-04-12T15:08:54.328Z,1004.91
2016-04-12T15:09:54.330Z,1004.96
2016-04-12T15:10:54.317Z,1004.14
2016-04-12T15:11:54.320Z,1005
2016-04-12T15:12:54.323Z,1004.97
2016-04-12T15:13:54.310Z,1004.27
2016-04-12T15:14:54.312Z,1004.77
2016-04-12T15:15:54.315Z,1004.84
2016-04-12T15:16:54.302Z,1004.68
2016-04-12T15:17:54.305Z,1004.81
2016-04-12T15:18:54.292Z,1004.72
2016-04-12T15:19:54.294Z,1004.73
2016-04-12T15:20:54.297Z,1004.66
2016-04-12T15:21:54.284Z,1004.7
2016-04-12T15:22:54.302Z,1004.59
2016-04-12T15:23:54.290Z,1004.65
2016-04-12T15:24:54.277Z,1004.68
2016-04-12T15:25:54.280Z,1004.59
2016-04-12T15:26:54.266Z,1004.08
2016-04-12T15:27:54.269Z,1004.47
2016-04-12T15:28:54.271Z,1004.44
2016-04-12T15:29:54.259Z,1004.46
2016-04-12T15:30:54.262Z,1004.4
2016-04-12T15:31:54.265Z,1004.45
2016-04-12T15:32:54.252Z,1004.35
2016-04-12T15:33:54.239Z,1004.12
2016-04-12T15:34:54.241Z,1004.2
2016-04-12T15:35:54.244Z,1004.12
2016-04-12T15:36:54.231Z,1004.1
2016-04-12T15:37:54.234Z,1004.08
2016-04-12T15:38:54.252Z,1003.89
2016-04-12T15:39:54.223Z,1004.02
2016-04-12T15:40:54.211Z,1003.95
2016-04-12T15:41:54.213Z,1004
2016-04-12T15:42:54.216Z,1003.98
2016-04-12T15:43:54.203Z,1003.93
2016-04-12T15:44:54.190Z,1004.2
2016-04-12T15:45:54.193Z,1004.14
2016-04-12T15:46:54.195Z,1004.04
2016-04-12T15:47:54.183Z,1003.91
2016-04-12T15:48:54.169Z,1003.97
2016-04-12T15:49:54.156Z,1003.98
2016-04-12T15:50:54.159Z,1003.95
2016-04-12T15:51:54.146Z,1004.08
2016-04-12T15:52:54.133Z,1003.86
2016-04-12T15:53:54.166Z,1003.89
2016-04-12T15:54:54.124Z,1003.86
2016-04-12T15:55:54.126Z,1003.88
2016-04-12T15:56:54.097Z,1003.97
2016-04-12T15:57:54.085Z,1003.97
2016-04-12T15:58:54.088Z,1003.92
2016-04-12T15:59:54.074Z,1003.91
2016-04-12T16:00:54.061Z,1004
2016-04-12T16:01:54.048Z,1003.93
2016-04-12T16:02:54.035Z,1003.94
2016-04-12T16:03:54.038Z,1003.99
2016-04-12T16:04:54.166Z,1003.97
2016-04-12T16:05:54.013Z,1004
2016-04-12T16:06:53.999Z,1004.11
2016-04-12T16:07:53.987Z,1003.94
2016-04-12T16:08:53.973Z,1004.19
2016-04-12T16:09:54.398Z,1004.03
2016-04-12T16:10:53.963Z,1004.04
2016-04-12T16:11:53.934Z,1004.09
2016-04-12T16:12:53.937Z,1004.11
2016-04-12T16:13:53.924Z,1004.13
2016-04-12T16:14:53.989Z,1004.02
2016-04-12T16:15:53.898Z,1004.01
2016-04-12T16:16:53.901Z,1004.04
2016-04-12T16:17:53.889Z,1004.04
2016-04-12T16:18:53.875Z,1004.04
2016-04-12T16:19:53.862Z,1003.98
2016-04-12T16:20:53.833Z,1004.03
2016-04-12T16:21:53.852Z,1004.1
2016-04-12T16:22:53.823Z,1003.99
2016-04-12T16:23:53.810Z,1004
2016-04-12T16:24:53.813Z,1004.11
2016-04-12T16:25:53.784Z,1004.06
2016-04-12T16:26:53.772Z,1004.07
2016-04-12T16:27:53.758Z,1004.03
2016-04-12T16:28:53.746Z,1004.02
2016-04-12T16:29:53.749Z,1003.99
2016-04-12T16:30:53.736Z,1004.03
2016-04-12T16:31:53.707Z,1004.01
2016-04-12T16:32:53.710Z,1004.06
2016-04-12T16:33:53.681Z,1004.1
2016-04-12T16:34:53.762Z,1004.15
2016-04-12T16:35:53.671Z,1004.13
2016-04-12T16:36:53.658Z,1004.14
2016-04-12T16:37:53.646Z,1004.05
2016-04-12T16:38:53.648Z,1004
2016-04-12T16:39:53.620Z,1004.05
2016-04-12T16:40:53.637Z,1004.04
2016-04-12T16:41:53.625Z,1004.17
2016-04-12T16:42:53.595Z,1004.17
2016-04-12T16:43:53.598Z,1004.13
2016-04-12T16:44:53.586Z,1004.01
2016-04-12T16:45:53.588Z,1004.15
2016-04-12T16:46:53.528Z,1004.3
2016-04-12T16:47:53.516Z,1004.14
2016-04-12T16:48:53.519Z,1004.13
2016-04-12T16:49:53.545Z,1004.17
2016-04-12T16:50:53.572Z,1004.19
2016-04-12T16:51:53.601Z,1004.29
2016-04-12T16:52:53.644Z,1004.18
2016-04-12T16:53:53.655Z,1004.18
2016-04-12T16:54:53.658Z,1004.3
2016-04-12T16:55:53.659Z,1004.2
2016-04-12T16:56:53.662Z,1004.2
2016-04-12T16:57:53.694Z,1004.3
2016-04-12T16:58:53.680Z,1004.32
2016-04-12T16:59:53.658Z,1004.16
2016-04-12T17:00:53.650Z,1004.25
2016-04-12T17:01:53.642Z,1004.08
2016-04-12T17:02:53.666Z,1004.35
2016-04-12T17:03:53.674Z,1004.29
2016-04-12T17:04:53.695Z,1004.34
2016-04-12T17:05:53.621Z,1004.35
2016-04-12T17:06:53.610Z,1004.35
2016-04-12T17:07:53.646Z,1004.29
2016-04-12T17:08:53.619Z,1004.3
2016-04-12T17:09:54.091Z,1004.39
2016-04-12T17:10:54.688Z,1004.25
2016-04-12T17:11:53.801Z,1004.35
2016-04-12T17:12:53.757Z,1004.32
2016-04-12T17:13:54.792Z,1004.3
2016-04-12T17:14:53.873Z,1004.21
2016-04-12T17:15:53.766Z,1004.22
2016-04-12T17:16:53.488Z,1004.26
2016-04-12T17:17:53.474Z,1004.26
2016-04-12T17:18:53.477Z,1004.28
2016-04-12T17:19:53.449Z,1004.23
2016-04-12T17:20:53.435Z,1004.24
2016-04-12T17:21:53.423Z,1004.21
2016-04-12T17:22:53.410Z,1004.14
2016-04-12T17:23:53.397Z,1004.13
2016-04-12T17:24:53.385Z,1004.06
2016-04-12T17:25:53.371Z,1004.21
2016-04-12T17:26:53.358Z,1004.1
2016-04-12T17:27:53.361Z,1004.04
2016-04-12T17:28:53.332Z,1004.05
2016-04-12T17:29:53.335Z,1004.03
2016-04-12T17:30:53.306Z,1003.99
2016-04-12T17:31:53.293Z,1003.97
2016-04-12T17:32:53.281Z,1003.95
2016-04-12T17:33:53.268Z,1003.97
2016-04-12T17:34:53.254Z,1003.97
2016-04-12T17:35:53.242Z,1003.88
2016-04-12T17:36:53.229Z,1003.83
2016-04-12T17:37:53.217Z,1003.81
2016-04-12T17:38:53.203Z,1003.74
2016-04-12T17:39:53.190Z,1003.83
2016-04-12T17:40:53.192Z,1003.79
2016-04-12T17:41:53.180Z,1003.8
2016-04-12T17:42:53.167Z,1003.87
2016-04-12T17:43:53.153Z,1003.9
2016-04-12T17:44:53.141Z,1003.93
2016-04-12T17:45:53.113Z,1003.93
2016-04-12T17:46:53.115Z,1004.14
2016-04-12T17:47:53.086Z,1004.14
2016-04-12T17:48:53.073Z,1004.18
2016-04-12T17:49:53.061Z,1004.23
2016-04-12T17:50:53.048Z,1004.31
2016-04-12T17:51:53.035Z,1004.51
2016-04-12T17:52:53.022Z,1004.29
2016-04-12T17:53:53.055Z,1004.28
2016-04-12T17:54:53.058Z,1004
2016-04-12T17:55:53.015Z,1003.88
2016-04-12T17:56:53.017Z,1003.97
2016-04-12T17:57:52.973Z,1004.02
2016-04-12T17:58:52.943Z,1004.11
2016-04-12T17:59:52.931Z,1004.17
2016-04-12T18:00:52.919Z,1004.3
2016-04-12T18:01:52.906Z,1004.28
2016-04-12T18:02:52.892Z,1004.26
2016-04-12T18:03:52.864Z,1004.31
2016-04-12T18:04:52.851Z,1004.27
2016-04-12T18:05:52.854Z,1004.22
2016-04-12T18:06:52.826Z,1004.23
2016-04-12T18:07:52.812Z,1004.19
2016-04-12T18:08:52.799Z,1004.16
2016-04-12T18:09:52.786Z,1004.14
2016-04-12T18:10:52.773Z,1004.17
2016-04-12T18:11:52.744Z,1004.13
2016-04-12T18:12:52.731Z,1004.1
2016-04-12T18:13:52.719Z,1004.13
2016-04-12T18:14:52.706Z,1004.16
2016-04-12T18:15:52.694Z,1004.06
2016-04-12T18:16:52.680Z,1004.2
2016-04-12T18:17:52.667Z,1004.11
2016-04-12T18:18:52.654Z,1004.17
2016-04-12T18:19:52.625Z,1004.11
2016-04-12T18:20:52.613Z,1004.15
